Warning: A non-numeric value encountered in /home/webcambr/www/wetterbrienz/weather28/wsFunctions.php on line 563

Live Webcam Brienzersee more information Live Webcam Brienzersee


Besuchen Sie unsere anderen Wetter Stationen:

Template documentation
and downloads

And another site



METAR-Meldungen aus der Umgebung

   
EBBR - Brussels International Airport, Belgium
Entfernung von der Station bis: W 14 km
Aktualisierung: 16-11-2018 19:20
Nebel, Stark bewölkt  
Nebel, Stark bewölkt  
   Wind: SO 3.7 km/h
Wind: SO 3.7 km/h
Temperatur: 4°C
Taupunkt: 4°C
Luftfeuchte: 100%
Luftdruck: 1027 hPa
Bewölkt: Mostly Cloudy
Sichtbarkeit: 0 km
Bewölkung: Stark bewölkt 100 ft
EBBR 161820Z 13002KT 0200 R25L/0550N R25R/1000U R01/0600N FG BKN001 04/04 Q1027 NOSIG
EBBE - Beauvechain (Bevekom), Belgium
Entfernung von der Station bis: SSO 17 km
Aktualisierung: 16-11-2018 18:55
Leichter Niederschlag möglich, Bewölkt  
Leichter Niederschlag möglich, Bewölkt  
   Wind: variiert 1.9 km/h
Wind: variiert 1.9 km/h
Temperatur: 3°C
Taupunkt: 3°C
Luftfeuchte: 100%
Luftdruck: 1027 hPa
Bewölkt: Overcast
Sichtbarkeit: 0 km
Bewölkung: Bewölkt 100 ft
EBBE 161755Z AUTO VRB01KT 0100 -RA OVC001/// 03/03 Q1027 RED
EBDT - Schaffen, Belgium
Entfernung von der Station bis: ONO 29 km
Aktualisierung: 16-11-2018 19:13
Klar  
Klar  
   Wind: Osten 5.6 km/h
Wind: Osten 5.6 km/h
Temperatur: 5°C
Gefühlt: 4°C
Taupunkt: 4°C
Luftfeuchte: 93%
Luftdruck: 1027 hPa
Bewölkt: Clear
Sichtbarkeit: 6 km
Bewölkung: Klar ft
EBDT 161813Z AUTO 08003KT 6000 NCD 05/04 Q1027 WHT
EBAW - Antwerp/Deurne, Belgium
Entfernung von der Station bis: NNW 38 km
Aktualisierung: 16-11-2018 19:20
Nebel, Bewölkt  
Nebel, Bewölkt  
   Wind: NO 1.9 km/h
Wind: NO 1.9 km/h
Bewölkt: Overcast
Sichtbarkeit: 0 km
Bewölkung: Bewölkt 100 ft
EBAW 161820Z 04001KT 0400 R11/0600N R29/0650N FG VV001 04/// Q1027 NOSIG
EBCI - Charleroi/Gosselies, Belgium
Entfernung von der Station bis: SSW 51 km
Aktualisierung: 16-11-2018 19:20
Nebel, Stark bewölkt  
Nebel, Stark bewölkt  
   Wind: ONO 11.1 km/h
Wind: ONO 11.1 km/h
Temperatur: 5°C
Gefühlt: 2°C
Taupunkt: 5°C
Luftfeuchte: 100%
Luftdruck: 1026 hPa
Bewölkt: Mostly Cloudy
Sichtbarkeit: 0 km
Bewölkung: Stark bewölkt 100 ft,
Stark bewölkt 200 ft
EBCI 161820Z 06006KT 0300 R24/0750D FG BKN001 BKN002 05/05 Q1026 NOSIG
EBLG - Bierset/Liege, Belgium
Entfernung von der Station bis: OSO 60 km
Aktualisierung: 16-11-2018 19:20
Klar  
Klar  
   Wind: Osten 3.7 km/h
Wind: Osten 3.7 km/h
Temperatur: 6°C
Taupunkt: 3°C
Luftfeuchte: 81%
Luftdruck: 1026 hPa
Sichtbarkeit: More than 10 km
Bewölkung: Klar ft
EBLG 161820Z 08002KT CAVOK 06/03 Q1026 NOSIG

Script entwickelt von  Saratoga-weather.org Angepasst für das Template von  Weerstation Leuven